Terminal Aerodrome Forecast
Issued by NWS Portland, OR

Home | Current Version | Previous Version | Text Only | Print | Product List | Glossary On
Versions: 1 2 3 4 5 6 7 8 9 10 11 12 13 14 15 16 17 18 19 20 21 22 23 24 25 26 27 28 29 30 31 32 33 34 35 36
000
FTUS46 KPQR 220227 AAA
TAFEUG
TAF AMD
KEUG 220227Z 2202/2224 26009KT P6SM -RA SCT020 BKN040 OVC060
      TEMPO 2202/2206 BKN020
     FM220600 VRB03KT 4SM -RA BR SCT015 OVC025
     FM221000 20004KT 3SM -RA BR SCT007 OVC010
     FM221900 18005KT 6SM BR SCT010 OVC020=

USA.gov is the U.S. government's official web portal to all federal, state and local government web resources and services.